sensor_id;sensor_type;location;lat;lon;timestamp;temperature;humidity
25732;DHT22;13585;50.864;4.406;2022-07-10T00:00:28;27.30;45.60
25732;DHT22;13585;50.864;4.406;2022-07-10T00:02:54;27.20;45.60
25732;DHT22;13585;50.864;4.406;2022-07-10T00:05:21;27.20;45.60
25732;DHT22;13585;50.864;4.406;2022-07-10T00:07:47;27.30;45.70
25732;DHT22;13585;50.864;4.406;2022-07-10T00:10:13;27.20;45.60
25732;DHT22;13585;50.864;4.406;2022-07-10T00:12:39;27.20;45.60
25732;DHT22;13585;50.864;4.406;2022-07-10T00:15:05;27.20;45.60
25732;DHT22;13585;50.864;4.406;2022-07-10T00:17:32;27.30;45.60
25732;DHT22;13585;50.864;4.406;2022-07-10T00:19:58;27.20;45.60
25732;DHT22;13585;50.864;4.406;2022-07-10T00:22:24;27.20;45.60
25732;DHT22;13585;50.864;4.406;2022-07-10T00:24:50;27.20;45.60
25732;DHT22;13585;50.864;4.406;2022-07-10T00:27:18;27.20;45.60
25732;DHT22;13585;50.864;4.406;2022-07-10T00:29:44;27.20;45.60
25732;DHT22;13585;50.864;4.406;2022-07-10T00:32:10;27.20;45.60
25732;DHT22;13585;50.864;4.406;2022-07-10T00:34:36;27.30;45.70
25732;DHT22;13585;50.864;4.406;2022-07-10T00:37:03;27.20;45.60
25732;DHT22;13585;50.864;4.406;2022-07-10T00:39:28;27.30;45.70
25732;DHT22;13585;50.864;4.406;2022-07-10T00:41:54;27.20;45.60
25732;DHT22;13585;50.864;4.406;2022-07-10T00:44:20;27.30;45.70
25732;DHT22;13585;50.864;4.406;2022-07-10T00:46:46;27.30;45.70
25732;DHT22;13585;50.864;4.406;2022-07-10T00:49:12;27.20;45.60
25732;DHT22;13585;50.864;4.406;2022-07-10T00:51:38;27.20;45.60
25732;DHT22;13585;50.864;4.406;2022-07-10T00:54:05;27.20;45.60
25732;DHT22;13585;50.864;4.406;2022-07-10T00:56:31;27.20;45.60
25732;DHT22;13585;50.864;4.406;2022-07-10T00:58:57;27.30;45.70
25732;DHT22;13585;50.864;4.406;2022-07-10T01:01:24;27.30;45.70
25732;DHT22;13585;50.864;4.406;2022-07-10T01:03:50;27.20;45.60
25732;DHT22;13585;50.864;4.406;2022-07-10T01:06:16;27.20;45.70
25732;DHT22;13585;50.864;4.406;2022-07-10T01:08:43;27.20;45.60
25732;DHT22;13585;50.864;4.406;2022-07-10T01:11:09;27.20;45.60
25732;DHT22;13585;50.864;4.406;2022-07-10T01:13:36;27.20;45.60
25732;DHT22;13585;50.864;4.406;2022-07-10T01:16:02;27.20;45.60
25732;DHT22;13585;50.864;4.406;2022-07-10T01:18:28;27.20;45.60
25732;DHT22;13585;50.864;4.406;2022-07-10T01:20:55;27.20;45.80
25732;DHT22;13585;50.864;4.406;2022-07-10T01:23:21;27.20;45.60
25732;DHT22;13585;50.864;4.406;2022-07-10T01:25:48;27.20;45.60
25732;DHT22;13585;50.864;4.406;2022-07-10T01:28:15;27.20;45.60
25732;DHT22;13585;50.864;4.406;2022-07-10T01:30:41;27.20;45.60
25732;DHT22;13585;50.864;4.406;2022-07-10T01:33:06;27.20;46.30
25732;DHT22;13585;50.864;4.406;2022-07-10T01:35:32;27.20;45.60
25732;DHT22;13585;50.864;4.406;2022-07-10T01:37:58;27.20;45.60
25732;DHT22;13585;50.864;4.406;2022-07-10T01:40:23;27.20;45.60
25732;DHT22;13585;50.864;4.406;2022-07-10T01:42:49;27.20;45.60
25732;DHT22;13585;50.864;4.406;2022-07-10T01:45:16;27.20;45.50
25732;DHT22;13585;50.864;4.406;2022-07-10T01:47:42;27.20;45.50
25732;DHT22;13585;50.864;4.406;2022-07-10T01:50:09;27.20;45.50
25732;DHT22;13585;50.864;4.406;2022-07-10T01:52:35;27.20;45.50
25732;DHT22;13585;50.864;4.406;2022-07-10T01:55:01;27.20;45.50
25732;DHT22;13585;50.864;4.406;2022-07-10T01:57:26;27.20;45.50
25732;DHT22;13585;50.864;4.406;2022-07-10T01:59:52;27.20;45.50
25732;DHT22;13585;50.864;4.406;2022-07-10T02:02:17;27.20;45.50
25732;DHT22;13585;50.864;4.406;2022-07-10T02:04:43;27.20;45.50
25732;DHT22;13585;50.864;4.406;2022-07-10T02:07:14;27.20;45.50
25732;DHT22;13585;50.864;4.406;2022-07-10T02:09:40;27.20;45.50
25732;DHT22;13585;50.864;4.406;2022-07-10T02:12:07;27.20;45.50
25732;DHT22;13585;50.864;4.406;2022-07-10T02:14:33;27.20;45.50
25732;DHT22;13585;50.864;4.406;2022-07-10T02:16:59;27.20;46.10
25732;DHT22;13585;50.864;4.406;2022-07-10T02:19:24;27.20;45.50
25732;DHT22;13585;50.864;4.406;2022-07-10T02:21:50;27.20;45.50
25732;DHT22;13585;50.864;4.406;2022-07-10T02:24:16;27.20;45.50
25732;DHT22;13585;50.864;4.406;2022-07-10T02:26:42;27.20;45.50
25732;DHT22;13585;50.864;4.406;2022-07-10T02:29:08;27.20;45.50
25732;DHT22;13585;50.864;4.406;2022-07-10T02:31:34;27.20;45.50
25732;DHT22;13585;50.864;4.406;2022-07-10T02:34:00;27.20;45.50
25732;DHT22;13585;50.864;4.406;2022-07-10T02:36:26;27.20;45.40
25732;DHT22;13585;50.864;4.406;2022-07-10T02:38:52;27.10;45.30
25732;DHT22;13585;50.864;4.406;2022-07-10T02:41:17;27.10;45.40
25732;DHT22;13585;50.864;4.406;2022-07-10T02:43:43;27.20;46.00
25732;DHT22;13585;50.864;4.406;2022-07-10T02:46:09;27.10;45.40
25732;DHT22;13585;50.864;4.406;2022-07-10T02:48:34;27.20;45.40
25732;DHT22;13585;50.864;4.406;2022-07-10T02:51:00;27.20;45.40
25732;DHT22;13585;50.864;4.406;2022-07-10T02:53:26;27.10;45.30
25732;DHT22;13585;50.864;4.406;2022-07-10T02:55:51;27.20;45.40
25732;DHT22;13585;50.864;4.406;2022-07-10T02:58:17;27.10;45.30
25732;DHT22;13585;50.864;4.406;2022-07-10T03:00:43;27.10;45.30
25732;DHT22;13585;50.864;4.406;2022-07-10T03:03:09;27.20;45.40
25732;DHT22;13585;50.864;4.406;2022-07-10T03:05:35;27.20;45.40
25732;DHT22;13585;50.864;4.406;2022-07-10T03:08:00;27.10;45.30
25732;DHT22;13585;50.864;4.406;2022-07-10T03:10:26;27.20;45.30
25732;DHT22;13585;50.864;4.406;2022-07-10T03:12:52;27.10;45.30
25732;DHT22;13585;50.864;4.406;2022-07-10T03:15:18;27.10;45.20
25732;DHT22;13585;50.864;4.406;2022-07-10T03:17:43;27.10;45.20
25732;DHT22;13585;50.864;4.406;2022-07-10T03:20:10;27.10;45.20
25732;DHT22;13585;50.864;4.406;2022-07-10T03:22:36;27.20;45.30
25732;DHT22;13585;50.864;4.406;2022-07-10T03:25:03;27.10;45.20
25732;DHT22;13585;50.864;4.406;2022-07-10T03:27:28;27.10;45.20
25732;DHT22;13585;50.864;4.406;2022-07-10T03:29:54;27.10;45.20
25732;DHT22;13585;50.864;4.406;2022-07-10T03:32:20;27.10;45.20
25732;DHT22;13585;50.864;4.406;2022-07-10T03:34:45;27.10;45.20
25732;DHT22;13585;50.864;4.406;2022-07-10T03:37:11;27.10;45.10
25732;DHT22;13585;50.864;4.406;2022-07-10T03:39:36;27.10;45.10
25732;DHT22;13585;50.864;4.406;2022-07-10T03:42:02;27.10;45.10
25732;DHT22;13585;50.864;4.406;2022-07-10T03:44:30;27.10;45.10
25732;DHT22;13585;50.864;4.406;2022-07-10T03:46:56;27.10;45.10
25732;DHT22;13585;50.864;4.406;2022-07-10T03:49:21;27.10;45.10
25732;DHT22;13585;50.864;4.406;2022-07-10T03:51:47;27.10;45.10
25732;DHT22;13585;50.864;4.406;2022-07-10T03:54:12;27.10;45.80
25732;DHT22;13585;50.864;4.406;2022-07-10T03:56:41;27.10;45.10
25732;DHT22;13585;50.864;4.406;2022-07-10T03:59:25;27.10;45.10
25732;DHT22;13585;50.864;4.406;2022-07-10T04:01:51;27.10;45.00
25732;DHT22;13585;50.864;4.406;2022-07-10T04:04:16;27.10;45.00
25732;DHT22;13585;50.864;4.406;2022-07-10T04:06:42;27.10;45.00
25732;DHT22;13585;50.864;4.406;2022-07-10T04:09:08;27.10;45.10
25732;DHT22;13585;50.864;4.406;2022-07-10T04:11:34;27.10;45.30
25732;DHT22;13585;50.864;4.406;2022-07-10T04:13:59;27.10;45.10
25732;DHT22;13585;50.864;4.406;2022-07-10T04:16:25;27.10;45.00
25732;DHT22;13585;50.864;4.406;2022-07-10T04:18:50;27.10;45.10
25732;DHT22;13585;50.864;4.406;2022-07-10T04:21:16;27.10;45.00
25732;DHT22;13585;50.864;4.406;2022-07-10T04:23:42;27.10;45.00
25732;DHT22;13585;50.864;4.406;2022-07-10T04:26:07;27.10;45.00
25732;DHT22;13585;50.864;4.406;2022-07-10T04:28:33;27.10;45.00
25732;DHT22;13585;50.864;4.406;2022-07-10T04:30:58;27.10;45.00
25732;DHT22;13585;50.864;4.406;2022-07-10T04:33:25;27.10;45.00
25732;DHT22;13585;50.864;4.406;2022-07-10T04:35:51;27.10;45.00
25732;DHT22;13585;50.864;4.406;2022-07-10T04:38:16;27.10;45.00
25732;DHT22;13585;50.864;4.406;2022-07-10T04:40:42;27.10;45.00
25732;DHT22;13585;50.864;4.406;2022-07-10T04:43:07;27.10;45.00
25732;DHT22;13585;50.864;4.406;2022-07-10T04:45:35;27.10;45.00
25732;DHT22;13585;50.864;4.406;2022-07-10T04:48:04;27.10;44.90
25732;DHT22;13585;50.864;4.406;2022-07-10T04:50:30;27.10;44.90
25732;DHT22;13585;50.864;4.406;2022-07-10T04:52:56;27.10;44.90
25732;DHT22;13585;50.864;4.406;2022-07-10T04:55:21;27.10;44.90
25732;DHT22;13585;50.864;4.406;2022-07-10T04:57:47;27.00;45.50
25732;DHT22;13585;50.864;4.406;2022-07-10T05:00:14;27.10;44.90
25732;DHT22;13585;50.864;4.406;2022-07-10T05:02:39;27.10;44.90
25732;DHT22;13585;50.864;4.406;2022-07-10T05:05:05;27.10;44.90
25732;DHT22;13585;50.864;4.406;2022-07-10T05:07:31;27.10;44.80
25732;DHT22;13585;50.864;4.406;2022-07-10T05:09:57;27.10;44.80
25732;DHT22;13585;50.864;4.406;2022-07-10T05:12:22;27.10;44.80
25732;DHT22;13585;50.864;4.406;2022-07-10T05:14:48;27.10;44.80
25732;DHT22;13585;50.864;4.406;2022-07-10T05:17:16;27.10;44.90
25732;DHT22;13585;50.864;4.406;2022-07-10T05:19:42;27.10;44.80
25732;DHT22;13585;50.864;4.406;2022-07-10T05:22:07;27.20;44.80
25732;DHT22;13585;50.864;4.406;2022-07-10T05:24:34;27.10;44.70
25732;DHT22;13585;50.864;4.406;2022-07-10T05:27:00;27.10;44.70
25732;DHT22;13585;50.864;4.406;2022-07-10T05:29:26;27.10;44.80
25732;DHT22;13585;50.864;4.406;2022-07-10T05:31:51;27.10;44.80
25732;DHT22;13585;50.864;4.406;2022-07-10T05:34:17;27.10;44.80
25732;DHT22;13585;50.864;4.406;2022-07-10T05:36:42;27.10;44.80
25732;DHT22;13585;50.864;4.406;2022-07-10T05:39:08;27.10;44.80
25732;DHT22;13585;50.864;4.406;2022-07-10T05:41:34;27.10;44.80
25732;DHT22;13585;50.864;4.406;2022-07-10T05:44:00;27.10;44.80
25732;DHT22;13585;50.864;4.406;2022-07-10T05:46:25;27.10;44.80
25732;DHT22;13585;50.864;4.406;2022-07-10T05:48:51;27.10;44.80
25732;DHT22;13585;50.864;4.406;2022-07-10T05:51:17;27.10;44.80
25732;DHT22;13585;50.864;4.406;2022-07-10T05:53:43;27.10;44.80
25732;DHT22;13585;50.864;4.406;2022-07-10T05:56:08;27.10;44.80
25732;DHT22;13585;50.864;4.406;2022-07-10T05:58:34;27.10;44.80
25732;DHT22;13585;50.864;4.406;2022-07-10T06:01:00;27.10;44.80
25732;DHT22;13585;50.864;4.406;2022-07-10T06:03:25;27.10;44.90
25732;DHT22;13585;50.864;4.406;2022-07-10T06:05:51;27.10;44.90
25732;DHT22;13585;50.864;4.406;2022-07-10T06:08:17;27.10;44.90
25732;DHT22;13585;50.864;4.406;2022-07-10T06:10:43;27.10;45.60
25732;DHT22;13585;50.864;4.406;2022-07-10T06:13:11;27.10;44.90
25732;DHT22;13585;50.864;4.406;2022-07-10T06:15:37;27.10;45.00
25732;DHT22;13585;50.864;4.406;2022-07-10T06:18:03;27.10;44.90
25732;DHT22;13585;50.864;4.406;2022-07-10T06:20:28;27.10;44.90
25732;DHT22;13585;50.864;4.406;2022-07-10T06:22:54;27.10;45.00
25732;DHT22;13585;50.864;4.406;2022-07-10T06:25:20;27.10;44.90
25732;DHT22;13585;50.864;4.406;2022-07-10T06:27:46;27.10;44.90
25732;DHT22;13585;50.864;4.406;2022-07-10T06:30:12;27.10;45.00
25732;DHT22;13585;50.864;4.406;2022-07-10T06:32:38;27.20;45.00
25732;DHT22;13585;50.864;4.406;2022-07-10T06:35:04;27.10;44.90
25732;DHT22;13585;50.864;4.406;2022-07-10T06:37:32;27.10;44.90
25732;DHT22;13585;50.864;4.406;2022-07-10T06:39:58;27.10;45.00
25732;DHT22;13585;50.864;4.406;2022-07-10T06:42:23;27.10;45.00
25732;DHT22;13585;50.864;4.406;2022-07-10T06:44:49;27.10;45.00
25732;DHT22;13585;50.864;4.406;2022-07-10T06:47:17;27.10;45.10
25732;DHT22;13585;50.864;4.406;2022-07-10T06:50:03;27.10;45.10
25732;DHT22;13585;50.864;4.406;2022-07-10T06:52:31;27.10;45.00
25732;DHT22;13585;50.864;4.406;2022-07-10T06:54:57;27.10;45.70
25732;DHT22;13585;50.864;4.406;2022-07-10T06:57:23;27.10;45.10
25732;DHT22;13585;50.864;4.406;2022-07-10T06:59:49;27.10;45.20
25732;DHT22;13585;50.864;4.406;2022-07-10T07:02:14;27.10;45.20
25732;DHT22;13585;50.864;4.406;2022-07-10T07:04:40;27.10;45.30
25732;DHT22;13585;50.864;4.406;2022-07-10T07:07:06;27.10;45.50
25732;DHT22;13585;50.864;4.406;2022-07-10T07:09:31;27.10;45.70
25732;DHT22;13585;50.864;4.406;2022-07-10T07:11:57;27.10;45.80
25732;DHT22;13585;50.864;4.406;2022-07-10T07:14:23;27.10;45.90
25732;DHT22;13585;50.864;4.406;2022-07-10T07:16:48;27.10;46.00
25732;DHT22;13585;50.864;4.406;2022-07-10T07:19:26;27.10;46.10
25732;DHT22;13585;50.864;4.406;2022-07-10T07:22:19;27.20;46.20
25732;DHT22;13585;50.864;4.406;2022-07-10T07:25:04;27.20;46.10
25732;DHT22;13585;50.864;4.406;2022-07-10T07:27:30;27.20;46.10
25732;DHT22;13585;50.864;4.406;2022-07-10T07:29:56;27.20;46.30
25732;DHT22;13585;50.864;4.406;2022-07-10T07:32:22;27.20;46.50
25732;DHT22;13585;50.864;4.406;2022-07-10T07:34:47;27.20;46.50
25732;DHT22;13585;50.864;4.406;2022-07-10T07:37:13;27.10;46.60
25732;DHT22;13585;50.864;4.406;2022-07-10T07:39:38;27.20;46.80
25732;DHT22;13585;50.864;4.406;2022-07-10T07:42:04;27.20;46.90
25732;DHT22;13585;50.864;4.406;2022-07-10T07:44:30;27.20;46.90
25732;DHT22;13585;50.864;4.406;2022-07-10T07:46:56;27.20;46.90
25732;DHT22;13585;50.864;4.406;2022-07-10T07:49:22;27.20;46.80
25732;DHT22;13585;50.864;4.406;2022-07-10T07:51:47;27.20;46.70
25732;DHT22;13585;50.864;4.406;2022-07-10T07:54:14;27.20;46.60
25732;DHT22;13585;50.864;4.406;2022-07-10T07:56:41;27.10;46.50
25732;DHT22;13585;50.864;4.406;2022-07-10T07:59:07;27.10;46.40
25732;DHT22;13585;50.864;4.406;2022-07-10T08:01:32;27.20;46.40
25732;DHT22;13585;50.864;4.406;2022-07-10T08:03:58;27.20;46.30
25732;DHT22;13585;50.864;4.406;2022-07-10T08:06:24;27.20;46.30
25732;DHT22;13585;50.864;4.406;2022-07-10T08:08:49;27.20;46.20
25732;DHT22;13585;50.864;4.406;2022-07-10T08:11:15;27.20;46.20
25732;DHT22;13585;50.864;4.406;2022-07-10T08:13:40;27.20;46.10
25732;DHT22;13585;50.864;4.406;2022-07-10T08:16:08;27.20;46.10
25732;DHT22;13585;50.864;4.406;2022-07-10T08:18:34;27.20;46.00
25732;DHT22;13585;50.864;4.406;2022-07-10T08:20:59;27.20;46.00
25732;DHT22;13585;50.864;4.406;2022-07-10T08:23:25;27.20;45.90
25732;DHT22;13585;50.864;4.406;2022-07-10T08:25:51;27.20;45.90
25732;DHT22;13585;50.864;4.406;2022-07-10T08:28:16;27.20;45.90
25732;DHT22;13585;50.864;4.406;2022-07-10T08:30:42;27.20;45.90
25732;DHT22;13585;50.864;4.406;2022-07-10T08:33:08;27.20;45.90
25732;DHT22;13585;50.864;4.406;2022-07-10T08:35:33;27.20;45.90
25732;DHT22;13585;50.864;4.406;2022-07-10T08:37:59;27.20;45.90
25732;DHT22;13585;50.864;4.406;2022-07-10T08:40:25;27.20;45.90
25732;DHT22;13585;50.864;4.406;2022-07-10T08:42:53;27.20;45.90
25732;DHT22;13585;50.864;4.406;2022-07-10T08:45:19;27.20;45.90
25732;DHT22;13585;50.864;4.406;2022-07-10T08:47:45;27.20;46.00
25732;DHT22;13585;50.864;4.406;2022-07-10T08:50:21;27.20;46.00
25732;DHT22;13585;50.864;4.406;2022-07-10T08:55:24;27.30;46.10
25732;DHT22;13585;50.864;4.406;2022-07-10T08:57:51;27.30;46.10
25732;DHT22;13585;50.864;4.406;2022-07-10T09:00:17;27.20;46.00
25732;DHT22;13585;50.864;4.406;2022-07-10T09:02:43;27.30;46.10
25732;DHT22;13585;50.864;4.406;2022-07-10T09:05:08;27.30;46.10
25732;DHT22;13585;50.864;4.406;2022-07-10T09:07:35;27.20;46.10
25732;DHT22;13585;50.864;4.406;2022-07-10T09:10:06;27.30;46.20
25732;DHT22;13585;50.864;4.406;2022-07-10T09:12:49;27.20;46.10
25732;DHT22;13585;50.864;4.406;2022-07-10T09:15:17;27.20;46.20
25732;DHT22;13585;50.864;4.406;2022-07-10T09:18:09;27.20;46.00
25732;DHT22;13585;50.864;4.406;2022-07-10T09:20:37;27.20;46.10
25732;DHT22;13585;50.864;4.406;2022-07-10T09:23:16;27.30;46.00
25732;DHT22;13585;50.864;4.406;2022-07-10T09:25:50;27.20;46.00
25732;DHT22;13585;50.864;4.406;2022-07-10T09:28:17;27.30;46.00
25732;DHT22;13585;50.864;4.406;2022-07-10T09:30:44;27.20;46.00
25732;DHT22;13585;50.864;4.406;2022-07-10T09:38:55;27.20;46.10
25732;DHT22;13585;50.864;4.406;2022-07-10T09:41:30;27.30;46.00
25732;DHT22;13585;50.864;4.406;2022-07-10T09:46:37;27.20;46.00
25732;DHT22;13585;50.864;4.406;2022-07-10T09:51:39;27.20;46.00
25732;DHT22;13585;50.864;4.406;2022-07-10T09:54:06;27.20;46.00
25732;DHT22;13585;50.864;4.406;2022-07-10T09:56:44;27.30;45.90
25732;DHT22;13585;50.864;4.406;2022-07-10T09:59:16;27.30;45.80
25732;DHT22;13585;50.864;4.406;2022-07-10T10:01:50;27.30;45.80
25732;DHT22;13585;50.864;4.406;2022-07-10T10:04:17;27.30;45.90
25732;DHT22;13585;50.864;4.406;2022-07-10T10:06:46;27.30;46.00
25732;DHT22;13585;50.864;4.406;2022-07-10T10:09:34;27.30;46.10
25732;DHT22;13585;50.864;4.406;2022-07-10T10:12:05;27.20;46.10
25732;DHT22;13585;50.864;4.406;2022-07-10T10:14:33;27.30;46.10
25732;DHT22;13585;50.864;4.406;2022-07-10T10:17:00;27.30;46.10
25732;DHT22;13585;50.864;4.406;2022-07-10T10:19:26;27.30;46.80
25732;DHT22;13585;50.864;4.406;2022-07-10T10:22:12;27.20;46.20
25732;DHT22;13585;50.864;4.406;2022-07-10T10:24:39;27.20;46.20
25732;DHT22;13585;50.864;4.406;2022-07-10T10:27:06;27.30;46.30
25732;DHT22;13585;50.864;4.406;2022-07-10T10:29:32;27.30;46.30
25732;DHT22;13585;50.864;4.406;2022-07-10T10:32:00;27.20;46.30
25732;DHT22;13585;50.864;4.406;2022-07-10T10:34:42;27.20;46.30
25732;DHT22;13585;50.864;4.406;2022-07-10T10:37:28;27.20;46.40
25732;DHT22;13585;50.864;4.406;2022-07-10T10:39:57;27.30;46.20
25732;DHT22;13585;50.864;4.406;2022-07-10T10:42:40;27.30;46.20
25732;DHT22;13585;50.864;4.406;2022-07-10T10:45:33;27.30;46.40
25732;DHT22;13585;50.864;4.406;2022-07-10T10:48:07;27.20;46.50
25732;DHT22;13585;50.864;4.406;2022-07-10T10:50:46;27.30;46.60
25732;DHT22;13585;50.864;4.406;2022-07-10T10:53:16;27.20;46.60
25732;DHT22;13585;50.864;4.406;2022-07-10T11:07:01;27.20;47.20
25732;DHT22;13585;50.864;4.406;2022-07-10T11:09:32;27.20;47.30
25732;DHT22;13585;50.864;4.406;2022-07-10T11:12:08;27.20;47.30
25732;DHT22;13585;50.864;4.406;2022-07-10T11:14:36;27.20;47.40
25732;DHT22;13585;50.864;4.406;2022-07-10T11:17:04;27.20;47.50
25732;DHT22;13585;50.864;4.406;2022-07-10T11:19:31;27.30;47.60
25732;DHT22;13585;50.864;4.406;2022-07-10T11:22:21;27.30;47.70
25732;DHT22;13585;50.864;4.406;2022-07-10T11:25:39;27.30;47.80
25732;DHT22;13585;50.864;4.406;2022-07-10T11:28:10;27.30;47.70
25732;DHT22;13585;50.864;4.406;2022-07-10T11:30:51;27.30;47.50
25732;DHT22;13585;50.864;4.406;2022-07-10T11:33:17;27.20;47.60
25732;DHT22;13585;50.864;4.406;2022-07-10T11:35:49;27.30;47.50
25732;DHT22;13585;50.864;4.406;2022-07-10T11:38:23;27.30;47.60
25732;DHT22;13585;50.864;4.406;2022-07-10T11:40:49;27.20;47.50
25732;DHT22;13585;50.864;4.406;2022-07-10T11:43:15;27.30;47.50
25732;DHT22;13585;50.864;4.406;2022-07-10T11:45:43;27.30;47.50
25732;DHT22;13585;50.864;4.406;2022-07-10T11:48:17;27.30;47.50
25732;DHT22;13585;50.864;4.406;2022-07-10T11:50:43;27.30;47.60
25732;DHT22;13585;50.864;4.406;2022-07-10T11:53:09;27.30;47.60
25732;DHT22;13585;50.864;4.406;2022-07-10T11:55:37;27.30;47.60
25732;DHT22;13585;50.864;4.406;2022-07-10T11:58:17;27.30;48.40
25732;DHT22;13585;50.864;4.406;2022-07-10T12:00:43;27.30;47.70
25732;DHT22;13585;50.864;4.406;2022-07-10T12:03:20;27.30;47.70
25732;DHT22;13585;50.864;4.406;2022-07-10T12:05:47;27.30;47.80
25732;DHT22;13585;50.864;4.406;2022-07-10T12:08:14;27.30;47.70
25732;DHT22;13585;50.864;4.406;2022-07-10T12:10:39;27.30;47.80
25732;DHT22;13585;50.864;4.406;2022-07-10T12:13:12;27.30;47.80
25732;DHT22;13585;50.864;4.406;2022-07-10T12:15:39;27.30;47.70
25732;DHT22;13585;50.864;4.406;2022-07-10T12:18:06;27.30;47.70
25732;DHT22;13585;50.864;4.406;2022-07-10T12:20:33;27.30;47.70
25732;DHT22;13585;50.864;4.406;2022-07-10T12:22:59;27.30;47.70
25732;DHT22;13585;50.864;4.406;2022-07-10T12:25:25;27.30;48.30
25732;DHT22;13585;50.864;4.406;2022-07-10T12:27:58;27.30;47.70
25732;DHT22;13585;50.864;4.406;2022-07-10T12:30:39;27.30;47.90
25732;DHT22;13585;50.864;4.406;2022-07-10T12:33:09;27.30;48.00
25732;DHT22;13585;50.864;4.406;2022-07-10T12:36:05;27.30;47.90
25732;DHT22;13585;50.864;4.406;2022-07-10T12:38:31;27.30;48.20
25732;DHT22;13585;50.864;4.406;2022-07-10T12:41:10;27.40;48.30
25732;DHT22;13585;50.864;4.406;2022-07-10T12:43:37;27.30;48.50
25732;DHT22;13585;50.864;4.406;2022-07-10T12:46:16;27.30;48.50
25732;DHT22;13585;50.864;4.406;2022-07-10T12:48:43;27.30;48.80
25732;DHT22;13585;50.864;4.406;2022-07-10T12:51:23;27.40;48.90
25732;DHT22;13585;50.864;4.406;2022-07-10T12:53:50;27.30;49.00
25732;DHT22;13585;50.864;4.406;2022-07-10T12:56:33;27.20;49.00
25732;DHT22;13585;50.864;4.406;2022-07-10T12:59:00;27.30;49.20
25732;DHT22;13585;50.864;4.406;2022-07-10T13:01:27;27.40;49.30
25732;DHT22;13585;50.864;4.406;2022-07-10T13:03:58;27.40;50.00
25732;DHT22;13585;50.864;4.406;2022-07-10T13:06:28;27.40;49.40
25732;DHT22;13585;50.864;4.406;2022-07-10T13:08:54;27.40;49.50
25732;DHT22;13585;50.864;4.406;2022-07-10T13:11:20;27.40;49.50
25732;DHT22;13585;50.864;4.406;2022-07-10T13:13:46;27.40;49.50
25732;DHT22;13585;50.864;4.406;2022-07-10T13:16:12;27.40;49.40
25732;DHT22;13585;50.864;4.406;2022-07-10T13:18:42;27.40;49.50
25732;DHT22;13585;50.864;4.406;2022-07-10T13:21:08;27.40;49.50
25732;DHT22;13585;50.864;4.406;2022-07-10T13:23:34;27.40;49.60
25732;DHT22;13585;50.864;4.406;2022-07-10T13:26:00;27.40;49.70
25732;DHT22;13585;50.864;4.406;2022-07-10T13:28:26;27.40;49.70
25732;DHT22;13585;50.864;4.406;2022-07-10T13:30:52;27.40;49.90
25732;DHT22;13585;50.864;4.406;2022-07-10T13:33:18;27.40;50.00
25732;DHT22;13585;50.864;4.406;2022-07-10T13:35:44;27.50;50.20
25732;DHT22;13585;50.864;4.406;2022-07-10T13:38:10;27.50;50.30
25732;DHT22;13585;50.864;4.406;2022-07-10T13:40:37;27.50;50.50
25732;DHT22;13585;50.864;4.406;2022-07-10T13:43:03;27.50;51.20
25732;DHT22;13585;50.864;4.406;2022-07-10T13:45:30;27.50;50.60
25732;DHT22;13585;50.864;4.406;2022-07-10T13:47:59;27.50;50.70
25732;DHT22;13585;50.864;4.406;2022-07-10T13:50:25;27.50;50.80
25732;DHT22;13585;50.864;4.406;2022-07-10T13:52:51;27.50;50.80
25732;DHT22;13585;50.864;4.406;2022-07-10T13:55:17;27.60;51.00
25732;DHT22;13585;50.864;4.406;2022-07-10T13:57:43;27.50;51.00
25732;DHT22;13585;50.864;4.406;2022-07-10T14:00:09;27.50;50.90
25732;DHT22;13585;50.864;4.406;2022-07-10T14:02:35;27.50;50.80
25732;DHT22;13585;50.864;4.406;2022-07-10T14:05:01;27.50;50.70
25732;DHT22;13585;50.864;4.406;2022-07-10T14:07:27;27.60;50.70
25732;DHT22;13585;50.864;4.406;2022-07-10T14:09:54;27.60;50.60
25732;DHT22;13585;50.864;4.406;2022-07-10T14:12:19;27.60;50.50
25732;DHT22;13585;50.864;4.406;2022-07-10T14:14:45;27.60;50.50
25732;DHT22;13585;50.864;4.406;2022-07-10T14:17:10;27.70;50.50
25732;DHT22;13585;50.864;4.406;2022-07-10T14:19:37;27.60;50.50
25732;DHT22;13585;50.864;4.406;2022-07-10T14:22:03;27.60;50.50
25732;DHT22;13585;50.864;4.406;2022-07-10T14:24:29;27.60;50.50
25732;DHT22;13585;50.864;4.406;2022-07-10T14:26:55;27.60;50.40
25732;DHT22;13585;50.864;4.406;2022-07-10T14:29:21;27.60;50.40
25732;DHT22;13585;50.864;4.406;2022-07-10T14:31:46;27.60;50.30
25732;DHT22;13585;50.864;4.406;2022-07-10T14:34:15;27.60;50.30
25732;DHT22;13585;50.864;4.406;2022-07-10T14:36:40;27.60;50.20
25732;DHT22;13585;50.864;4.406;2022-07-10T14:39:06;27.60;50.10
25732;DHT22;13585;50.864;4.406;2022-07-10T14:41:32;27.60;50.00
25732;DHT22;13585;50.864;4.406;2022-07-10T14:43:58;27.60;49.90
25732;DHT22;13585;50.864;4.406;2022-07-10T14:46:23;27.70;49.90
25732;DHT22;13585;50.864;4.406;2022-07-10T14:48:50;27.60;49.70
25732;DHT22;13585;50.864;4.406;2022-07-10T14:51:16;27.60;49.60
25732;DHT22;13585;50.864;4.406;2022-07-10T14:53:42;27.60;49.50
25732;DHT22;13585;50.864;4.406;2022-07-10T14:56:09;27.60;49.40
25732;DHT22;13585;50.864;4.406;2022-07-10T14:58:35;27.60;49.30
25732;DHT22;13585;50.864;4.406;2022-07-10T15:01:00;27.60;49.40
25732;DHT22;13585;50.864;4.406;2022-07-10T15:03:28;27.70;49.40
25732;DHT22;13585;50.864;4.406;2022-07-10T15:05:53;27.70;49.40
25732;DHT22;13585;50.864;4.406;2022-07-10T15:08:22;27.70;49.40
25732;DHT22;13585;50.864;4.406;2022-07-10T15:10:48;27.60;49.20
25732;DHT22;13585;50.864;4.406;2022-07-10T15:13:14;27.70;49.20
25732;DHT22;13585;50.864;4.406;2022-07-10T15:15:40;27.70;49.20
25732;DHT22;13585;50.864;4.406;2022-07-10T15:18:06;27.70;49.20
25732;DHT22;13585;50.864;4.406;2022-07-10T15:20:31;27.70;49.20
25732;DHT22;13585;50.864;4.406;2022-07-10T15:22:57;27.70;49.20
25732;DHT22;13585;50.864;4.406;2022-07-10T15:25:23;27.70;49.20
25732;DHT22;13585;50.864;4.406;2022-07-10T15:27:50;27.70;49.20
25732;DHT22;13585;50.864;4.406;2022-07-10T15:30:16;27.70;49.20
25732;DHT22;13585;50.864;4.406;2022-07-10T15:32:42;27.70;49.10
25732;DHT22;13585;50.864;4.406;2022-07-10T15:35:07;27.70;49.10
25732;DHT22;13585;50.864;4.406;2022-07-10T15:37:33;27.70;49.10
25732;DHT22;13585;50.864;4.406;2022-07-10T15:39:59;27.70;49.10
25732;DHT22;13585;50.864;4.406;2022-07-10T15:42:24;27.70;49.10
25732;DHT22;13585;50.864;4.406;2022-07-10T15:44:50;27.70;49.10
25732;DHT22;13585;50.864;4.406;2022-07-10T15:47:16;27.70;49.10
25732;DHT22;13585;50.864;4.406;2022-07-10T15:49:42;27.70;49.10
25732;DHT22;13585;50.864;4.406;2022-07-10T15:52:08;27.70;49.00
25732;DHT22;13585;50.864;4.406;2022-07-10T15:54:33;27.70;49.00
25732;DHT22;13585;50.864;4.406;2022-07-10T15:56:59;27.80;49.00